sensor_id;sensor_type;location;lat;lon;timestamp;P1;durP1;ratioP1;P2;durP2;ratioP2
57893;SDS011;43710;47.460;19.034;2023-11-21T05:06:29;12.05;;;6.90;;
57893;SDS011;43710;47.460;19.034;2023-11-21T05:09:32;11.98;;;6.22;;
57893;SDS011;43710;47.460;19.034;2023-11-21T05:12:34;13.48;;;5.87;;
57893;SDS011;43710;47.460;19.034;2023-11-21T05:15:39;10.55;;;6.10;;
57893;SDS011;43710;47.460;19.034;2023-11-21T05:18:43;8.45;;;5.82;;
57893;SDS011;43710;47.460;19.034;2023-11-21T05:21:45;11.70;;;5.55;;
57893;SDS011;43710;47.460;19.034;2023-11-21T05:24:48;9.13;;;5.93;;
57893;SDS011;43710;47.460;19.034;2023-11-21T05:27:50;9.70;;;5.78;;
57893;SDS011;43710;47.460;19.034;2023-11-21T05:30:52;10.07;;;6.07;;
57893;SDS011;43710;47.460;19.034;2023-11-21T05:34:15;12.73;;;6.65;;
57893;SDS011;43710;47.460;19.034;2023-11-21T05:37:19;11.93;;;6.72;;
57893;SDS011;43710;47.460;19.034;2023-11-21T05:40:22;12.98;;;7.20;;
57893;SDS011;43710;47.460;19.034;2023-11-21T05:43:24;13.48;;;7.37;;
57893;SDS011;43710;47.460;19.034;2023-11-21T05:46:27;15.48;;;7.47;;
57893;SDS011;43710;47.460;19.034;2023-11-21T05:49:29;12.02;;;6.78;;
57893;SDS011;43710;47.460;19.034;2023-11-21T05:52:32;13.23;;;7.45;;
57893;SDS011;43710;47.460;19.034;2023-11-21T05:55:34;11.73;;;6.95;;
57893;SDS011;43710;47.460;19.034;2023-11-21T05:58:37;10.40;;;6.85;;
57893;SDS011;43710;47.460;19.034;2023-11-21T06:01:40;11.90;;;6.95;;
57893;SDS011;43710;47.460;19.034;2023-11-21T06:04:42;14.98;;;7.75;;
57893;SDS011;43710;47.460;19.034;2023-11-21T06:07:45;15.18;;;7.47;;
57893;SDS011;43710;47.460;19.034;2023-11-21T06:10:48;15.80;;;8.38;;
57893;SDS011;43710;47.460;19.034;2023-11-21T06:13:51;14.55;;;8.25;;
57893;SDS011;43710;47.460;19.034;2023-11-21T06:16:56;14.48;;;8.30;;
57893;SDS011;43710;47.460;19.034;2023-11-21T06:19:59;12.20;;;7.68;;
57893;SDS011;43710;47.460;19.034;2023-11-21T06:23:03;13.35;;;7.25;;
57893;SDS011;43710;47.460;19.034;2023-11-21T06:26:06;11.65;;;7.65;;
57893;SDS011;43710;47.460;19.034;2023-11-21T06:29:09;13.82;;;7.22;;
57893;SDS011;43710;47.460;19.034;2023-11-21T06:32:12;12.05;;;7.12;;
57893;SDS011;43710;47.460;19.034;2023-11-21T06:35:16;13.20;;;6.80;;
57893;SDS011;43710;47.460;19.034;2023-11-21T06:38:19;12.98;;;7.28;;
57893;SDS011;43710;47.460;19.034;2023-11-21T06:41:22;13.13;;;7.60;;
57893;SDS011;43710;47.460;19.034;2023-11-21T06:44:26;11.85;;;6.93;;
57893;SDS011;43710;47.460;19.034;2023-11-21T06:47:30;12.25;;;6.90;;
57893;SDS011;43710;47.460;19.034;2023-11-21T06:50:32;13.32;;;7.05;;
57893;SDS011;43710;47.460;19.034;2023-11-21T06:53:37;17.73;;;7.03;;
57893;SDS011;43710;47.460;19.034;2023-11-21T06:56:40;16.10;;;7.03;;
57893;SDS011;43710;47.460;19.034;2023-11-21T06:59:43;12.98;;;6.87;;
57893;SDS011;43710;47.460;19.034;2023-11-21T07:02:45;10.82;;;6.35;;
57893;SDS011;43710;47.460;19.034;2023-11-21T07:05:48;14.05;;;7.22;;
57893;SDS011;43710;47.460;19.034;2023-11-21T07:08:50;11.73;;;7.03;;
57893;SDS011;43710;47.460;19.034;2023-11-21T07:11:53;12.45;;;7.10;;
57893;SDS011;43710;47.460;19.034;2023-11-21T07:14:56;10.73;;;6.97;;
57893;SDS011;43710;47.460;19.034;2023-11-21T07:17:58;13.95;;;6.97;;
57893;SDS011;43710;47.460;19.034;2023-11-21T07:21:01;11.55;;;6.53;;
57893;SDS011;43710;47.460;19.034;2023-11-21T07:24:04;14.73;;;6.93;;
57893;SDS011;43710;47.460;19.034;2023-11-21T07:27:08;13.82;;;6.90;;
57893;SDS011;43710;47.460;19.034;2023-11-21T07:30:10;11.05;;;7.20;;
57893;SDS011;43710;47.460;19.034;2023-11-21T07:33:15;15.02;;;6.90;;
57893;SDS011;43710;47.460;19.034;2023-11-21T07:36:19;14.85;;;8.00;;
57893;SDS011;43710;47.460;19.034;2023-11-21T07:39:24;13.43;;;8.65;;
57893;SDS011;43710;47.460;19.034;2023-11-21T07:42:27;12.43;;;7.55;;
57893;SDS011;43710;47.460;19.034;2023-11-21T07:45:30;13.95;;;8.18;;
57893;SDS011;43710;47.460;19.034;2023-11-21T07:48:33;16.60;;;8.35;;
57893;SDS011;43710;47.460;19.034;2023-11-21T07:51:36;14.57;;;7.93;;
57893;SDS011;43710;47.460;19.034;2023-11-21T07:54:41;17.95;;;8.45;;
57893;SDS011;43710;47.460;19.034;2023-11-21T07:57:43;16.05;;;7.95;;
57893;SDS011;43710;47.460;19.034;2023-11-21T08:00:46;13.90;;;9.52;;
57893;SDS011;43710;47.460;19.034;2023-11-21T08:03:49;19.67;;;10.15;;
57893;SDS011;43710;47.460;19.034;2023-11-21T08:06:54;17.12;;;7.32;;
57893;SDS011;43710;47.460;19.034;2023-11-21T08:09:56;12.65;;;8.18;;
57893;SDS011;43710;47.460;19.034;2023-11-21T08:12:59;16.08;;;8.23;;
57893;SDS011;43710;47.460;19.034;2023-11-21T08:16:01;13.77;;;7.75;;
57893;SDS011;43710;47.460;19.034;2023-11-21T08:19:05;12.63;;;7.90;;
57893;SDS011;43710;47.460;19.034;2023-11-21T08:22:08;14.35;;;8.18;;
57893;SDS011;43710;47.460;19.034;2023-11-21T08:25:10;14.87;;;8.25;;
57893;SDS011;43710;47.460;19.034;2023-11-21T08:28:13;13.60;;;8.23;;
57893;SDS011;43710;47.460;19.034;2023-11-21T08:31:23;15.23;;;7.25;;
57893;SDS011;43710;47.460;19.034;2023-11-21T08:34:27;16.00;;;7.47;;
57893;SDS011;43710;47.460;19.034;2023-11-21T08:37:30;11.00;;;6.85;;
57893;SDS011;43710;47.460;19.034;2023-11-21T08:40:35;14.95;;;7.22;;
57893;SDS011;43710;47.460;19.034;2023-11-21T08:43:37;39.60;;;9.40;;
57893;SDS011;43710;47.460;19.034;2023-11-21T08:46:46;12.03;;;6.50;;
57893;SDS011;43710;47.460;19.034;2023-11-21T08:49:50;11.18;;;6.50;;
57893;SDS011;43710;47.460;19.034;2023-11-21T08:52:55;12.93;;;7.30;;
57893;SDS011;43710;47.460;19.034;2023-11-21T08:55:58;15.38;;;7.47;;
57893;SDS011;43710;47.460;19.034;2023-11-21T08:59:00;11.60;;;7.45;;
57893;SDS011;43710;47.460;19.034;2023-11-21T09:02:04;17.92;;;7.93;;
57893;SDS011;43710;47.460;19.034;2023-11-21T09:05:09;18.45;;;7.62;;
57893;SDS011;43710;47.460;19.034;2023-11-21T09:08:13;11.55;;;7.75;;
57893;SDS011;43710;47.460;19.034;2023-11-21T09:11:15;11.18;;;6.80;;
57893;SDS011;43710;47.460;19.034;2023-11-21T09:14:18;10.60;;;7.25;;
57893;SDS011;43710;47.460;19.034;2023-11-21T09:17:21;14.32;;;7.45;;
57893;SDS011;43710;47.460;19.034;2023-11-21T09:20:23;9.18;;;6.05;;
57893;SDS011;43710;47.460;19.034;2023-11-21T09:23:26;10.30;;;6.50;;
57893;SDS011;43710;47.460;19.034;2023-11-21T09:26:28;15.20;;;6.78;;
57893;SDS011;43710;47.460;19.034;2023-11-21T09:29:32;11.43;;;6.90;;
57893;SDS011;43710;47.460;19.034;2023-11-21T09:32:34;13.80;;;6.78;;
57893;SDS011;43710;47.460;19.034;2023-11-21T09:35:39;12.80;;;7.32;;
57893;SDS011;43710;47.460;19.034;2023-11-21T09:38:41;12.37;;;6.82;;
57893;SDS011;43710;47.460;19.034;2023-11-21T09:41:50;11.75;;;7.07;;
57893;SDS011;43710;47.460;19.034;2023-11-21T09:44:58;12.85;;;7.03;;
57893;SDS011;43710;47.460;19.034;2023-11-21T09:48:07;12.10;;;7.00;;
57893;SDS011;43710;47.460;19.034;2023-11-21T09:51:13;8.83;;;6.30;;
57893;SDS011;43710;47.460;19.034;2023-11-21T09:54:18;15.13;;;6.62;;
57893;SDS011;43710;47.460;19.034;2023-11-21T09:57:21;13.55;;;5.90;;
57893;SDS011;43710;47.460;19.034;2023-11-21T10:00:25;12.10;;;5.68;;
57893;SDS011;43710;47.460;19.034;2023-11-21T10:03:31;41.42;;;7.75;;
57893;SDS011;43710;47.460;19.034;2023-11-21T10:06:41;14.82;;;5.97;;
57893;SDS011;43710;47.460;19.034;2023-11-21T10:09:44;12.80;;;5.40;;
57893;SDS011;43710;47.460;19.034;2023-11-21T10:12:48;10.25;;;5.12;;
57893;SDS011;43710;47.460;19.034;2023-11-21T10:15:55;10.60;;;4.80;;
57893;SDS011;43710;47.460;19.034;2023-11-21T10:18:59;15.88;;;5.68;;
57893;SDS011;43710;47.460;19.034;2023-11-21T10:22:13;11.63;;;5.82;;
57893;SDS011;43710;47.460;19.034;2023-11-21T10:25:17;14.68;;;5.95;;
57893;SDS011;43710;47.460;19.034;2023-11-21T10:28:22;13.02;;;6.12;;
57893;SDS011;43710;47.460;19.034;2023-11-21T10:31:27;11.60;;;5.80;;
57893;SDS011;43710;47.460;19.034;2023-11-21T10:34:35;14.30;;;6.40;;
57893;SDS011;43710;47.460;19.034;2023-11-21T10:40:44;13.25;;;7.03;;
57893;SDS011;43710;47.460;19.034;2023-11-21T10:43:47;14.55;;;6.60;;
57893;SDS011;43710;47.460;19.034;2023-11-21T10:46:50;12.20;;;6.15;;
57893;SDS011;43710;47.460;19.034;2023-11-21T10:49:53;16.08;;;6.45;;
57893;SDS011;43710;47.460;19.034;2023-11-21T10:52:56;11.32;;;6.70;;
57893;SDS011;43710;47.460;19.034;2023-11-21T10:56:05;15.05;;;6.45;;
57893;SDS011;43710;47.460;19.034;2023-11-21T10:59:10;14.13;;;6.50;;
57893;SDS011;43710;47.460;19.034;2023-11-21T11:05:23;11.10;;;5.80;;
57893;SDS011;43710;47.460;19.034;2023-11-21T11:08:34;11.32;;;6.15;;
57893;SDS011;43710;47.460;19.034;2023-11-21T11:11:37;14.32;;;8.55;;
57893;SDS011;43710;47.460;19.034;2023-11-21T11:14:42;10.45;;;5.90;;
57893;SDS011;43710;47.460;19.034;2023-11-21T11:17:47;13.05;;;7.07;;
57893;SDS011;43710;47.460;19.034;2023-11-21T11:20:52;15.80;;;6.53;;
57893;SDS011;43710;47.460;19.034;2023-11-21T11:27:24;10.43;;;5.83;;
57893;SDS011;43710;47.460;19.034;2023-11-21T11:34:28;14.10;;;6.53;;
57893;SDS011;43710;47.460;19.034;2023-11-21T11:37:34;12.07;;;6.37;;
57893;SDS011;43710;47.460;19.034;2023-11-21T11:40:39;9.27;;;6.03;;
57893;SDS011;43710;47.460;19.034;2023-11-21T11:43:45;17.90;;;6.65;;
57893;SDS011;43710;47.460;19.034;2023-11-21T11:46:47;10.18;;;5.62;;
57893;SDS011;43710;47.460;19.034;2023-11-21T11:53:13;17.15;;;5.18;;
57893;SDS011;43710;47.460;19.034;2023-11-21T11:56:27;9.13;;;4.80;;
57893;SDS011;43710;47.460;19.034;2023-11-21T11:59:37;11.38;;;4.93;;
57893;SDS011;43710;47.460;19.034;2023-11-21T12:03:13;11.10;;;4.72;;
57893;SDS011;43710;47.460;19.034;2023-11-21T12:06:16;9.82;;;4.40;;
57893;SDS011;43710;47.460;19.034;2023-11-21T12:09:21;7.93;;;4.25;;
57893;SDS011;43710;47.460;19.034;2023-11-21T12:12:25;7.90;;;4.30;;
57893;SDS011;43710;47.460;19.034;2023-11-21T12:15:29;6.87;;;4.28;;
57893;SDS011;43710;47.460;19.034;2023-11-21T12:18:33;9.85;;;5.00;;
57893;SDS011;43710;47.460;19.034;2023-11-21T12:21:36;14.20;;;5.05;;
57893;SDS011;43710;47.460;19.034;2023-11-21T12:24:38;13.88;;;5.68;;
57893;SDS011;43710;47.460;19.034;2023-11-21T12:27:41;7.45;;;5.28;;
57893;SDS011;43710;47.460;19.034;2023-11-21T12:30:47;9.98;;;4.82;;
57893;SDS011;43710;47.460;19.034;2023-11-21T12:33:50;12.77;;;5.75;;
57893;SDS011;43710;47.460;19.034;2023-11-21T12:36:52;10.65;;;5.65;;
57893;SDS011;43710;47.460;19.034;2023-11-21T12:39:56;13.27;;;4.87;;
57893;SDS011;43710;47.460;19.034;2023-11-21T12:43:00;13.73;;;5.62;;
57893;SDS011;43710;47.460;19.034;2023-11-21T12:46:10;9.35;;;4.87;;
57893;SDS011;43710;47.460;19.034;2023-11-21T12:49:13;9.70;;;5.18;;
57893;SDS011;43710;47.460;19.034;2023-11-21T12:52:19;10.55;;;5.22;;
57893;SDS011;43710;47.460;19.034;2023-11-21T12:55:22;14.02;;;5.37;;
57893;SDS011;43710;47.460;19.034;2023-11-21T12:58:25;11.05;;;5.15;;
57893;SDS011;43710;47.460;19.034;2023-11-21T13:01:27;8.07;;;5.32;;
57893;SDS011;43710;47.460;19.034;2023-11-21T13:04:32;9.95;;;5.15;;
57893;SDS011;43710;47.460;19.034;2023-11-21T13:07:42;9.48;;;5.10;;
57893;SDS011;43710;47.460;19.034;2023-11-21T13:10:50;10.63;;;5.57;;
57893;SDS011;43710;47.460;19.034;2023-11-21T13:13:57;12.95;;;6.07;;
57893;SDS011;43710;47.460;19.034;2023-11-21T13:17:00;14.43;;;5.70;;
57893;SDS011;43710;47.460;19.034;2023-11-21T13:20:02;14.10;;;5.62;;
57893;SDS011;43710;47.460;19.034;2023-11-21T13:23:10;10.88;;;6.30;;
57893;SDS011;43710;47.460;19.034;2023-11-21T13:26:17;10.45;;;6.12;;
57893;SDS011;43710;47.460;19.034;2023-11-21T13:29:23;10.52;;;5.65;;
57893;SDS011;43710;47.460;19.034;2023-11-21T13:32:27;12.40;;;6.18;;
57893;SDS011;43710;47.460;19.034;2023-11-21T13:35:32;15.35;;;7.55;;
57893;SDS011;43710;47.460;19.034;2023-11-21T13:38:39;15.40;;;8.10;;
57893;SDS011;43710;47.460;19.034;2023-11-21T13:41:45;11.98;;;7.35;;
57893;SDS011;43710;47.460;19.034;2023-11-21T13:44:57;13.40;;;8.60;;
57893;SDS011;43710;47.460;19.034;2023-11-21T13:47:59;18.30;;;8.50;;
57893;SDS011;43710;47.460;19.034;2023-11-21T13:51:02;15.68;;;7.95;;
57893;SDS011;43710;47.460;19.034;2023-11-21T13:54:15;14.98;;;8.00;;
57893;SDS011;43710;47.460;19.034;2023-11-21T13:57:17;13.45;;;8.27;;
57893;SDS011;43710;47.460;19.034;2023-11-21T14:00:20;14.43;;;7.90;;
57893;SDS011;43710;47.460;19.034;2023-11-21T14:03:46;16.52;;;7.95;;
57893;SDS011;43710;47.460;19.034;2023-11-21T14:06:54;15.32;;;9.00;;
57893;SDS011;43710;47.460;19.034;2023-11-21T14:09:57;14.70;;;8.90;;
57893;SDS011;43710;47.460;19.034;2023-11-21T14:13:00;16.20;;;8.35;;
57893;SDS011;43710;47.460;19.034;2023-11-21T14:16:02;15.82;;;8.40;;
57893;SDS011;43710;47.460;19.034;2023-11-21T14:19:08;14.32;;;8.15;;
57893;SDS011;43710;47.460;19.034;2023-11-21T14:22:20;13.27;;;8.40;;
57893;SDS011;43710;47.460;19.034;2023-11-21T14:25:23;16.48;;;8.40;;
57893;SDS011;43710;47.460;19.034;2023-11-21T14:28:26;14.65;;;8.25;;
57893;SDS011;43710;47.460;19.034;2023-11-21T14:31:28;11.75;;;7.60;;
57893;SDS011;43710;47.460;19.034;2023-11-21T14:34:32;20.37;;;10.38;;
57893;SDS011;43710;47.460;19.034;2023-11-21T14:37:34;17.33;;;9.40;;
57893;SDS011;43710;47.460;19.034;2023-11-21T14:40:37;13.93;;;8.82;;
57893;SDS011;43710;47.460;19.034;2023-11-21T14:43:40;16.15;;;8.80;;
57893;SDS011;43710;47.460;19.034;2023-11-21T14:46:43;21.27;;;9.93;;
57893;SDS011;43710;47.460;19.034;2023-11-21T14:49:48;17.02;;;9.40;;
57893;SDS011;43710;47.460;19.034;2023-11-21T14:52:55;16.30;;;9.95;;
57893;SDS011;43710;47.460;19.034;2023-11-21T14:56:01;20.17;;;11.15;;
57893;SDS011;43710;47.460;19.034;2023-11-21T14:59:06;21.50;;;11.82;;
57893;SDS011;43710;47.460;19.034;2023-11-21T15:02:14;19.87;;;10.80;;
57893;SDS011;43710;47.460;19.034;2023-11-21T15:05:17;19.83;;;10.68;;
57893;SDS011;43710;47.460;19.034;2023-11-21T15:08:21;18.20;;;8.82;;
57893;SDS011;43710;47.460;19.034;2023-11-21T15:11:28;13.73;;;7.72;;
57893;SDS011;43710;47.460;19.034;2023-11-21T15:14:33;14.82;;;7.85;;
57893;SDS011;43710;47.460;19.034;2023-11-21T15:17:38;13.38;;;8.27;;
57893;SDS011;43710;47.460;19.034;2023-11-21T15:20:45;11.23;;;4.53;;
57893;SDS011;43710;47.460;19.034;2023-11-21T15:23:47;8.38;;;3.75;;
57893;SDS011;43710;47.460;19.034;2023-11-21T15:26:50;8.93;;;4.43;;
57893;SDS011;43710;47.460;19.034;2023-11-21T15:29:53;8.52;;;3.50;;
57893;SDS011;43710;47.460;19.034;2023-11-21T15:32:55;10.43;;;4.32;;
57893;SDS011;43710;47.460;19.034;2023-11-21T15:35:58;7.75;;;4.35;;
57893;SDS011;43710;47.460;19.034;2023-11-21T15:39:00;10.23;;;3.70;;
57893;SDS011;43710;47.460;19.034;2023-11-21T15:42:03;7.95;;;3.40;;
57893;SDS011;43710;47.460;19.034;2023-11-21T15:45:07;5.65;;;3.28;;
57893;SDS011;43710;47.460;19.034;2023-11-21T15:48:10;9.30;;;3.97;;
57893;SDS011;43710;47.460;19.034;2023-11-21T15:51:12;6.20;;;3.55;;
57893;SDS011;43710;47.460;19.034;2023-11-21T15:54:15;11.88;;;4.05;;
57893;SDS011;43710;47.460;19.034;2023-11-21T15:57:17;6.05;;;3.30;;
57893;SDS011;43710;47.460;19.034;2023-11-21T16:00:20;7.78;;;3.22;;
57893;SDS011;43710;47.460;19.034;2023-11-21T16:03:25;7.03;;;3.28;;
57893;SDS011;43710;47.460;19.034;2023-11-21T16:06:27;5.72;;;3.28;;
57893;SDS011;43710;47.460;19.034;2023-11-21T16:09:31;8.65;;;3.80;;
57893;SDS011;43710;47.460;19.034;2023-11-21T16:12:33;6.32;;;3.58;;
57893;SDS011;43710;47.460;19.034;2023-11-21T16:15:36;7.80;;;3.40;;
57893;SDS011;43710;47.460;19.034;2023-11-21T16:18:38;5.95;;;3.35;;
57893;SDS011;43710;47.460;19.034;2023-11-21T16:21:40;7.60;;;3.30;;
57893;SDS011;43710;47.460;19.034;2023-11-21T16:24:43;7.70;;;3.60;;
57893;SDS011;43710;47.460;19.034;2023-11-21T16:27:45;11.77;;;3.80;;
57893;SDS011;43710;47.460;19.034;2023-11-21T16:30:48;8.13;;;3.87;;
57893;SDS011;43710;47.460;19.034;2023-11-21T16:33:52;6.35;;;3.58;;
57893;SDS011;43710;47.460;19.034;2023-11-21T16:36:54;8.35;;;4.20;;
57893;SDS011;43710;47.460;19.034;2023-11-21T16:40:00;7.07;;;3.70;;
57893;SDS011;43710;47.460;19.034;2023-11-21T16:43:02;6.45;;;3.60;;
57893;SDS011;43710;47.460;19.034;2023-11-21T16:46:05;7.57;;;4.10;;
